Time;durP1;ratioP1;P1;durP2;ratioP2;P2;SDS_P1;SDS_P2;PMS_P1;PMS_P2;Temp;Humidity;BMP_temperature;BMP_pressure;BME280_temperature;BME280_humidity;BME280_pressure;Samples;Min_cycle;Max_cycle;Signal;HPM_P1;HPM_P2
2021/08/13 00:01:50;;;;;;;12.20;2.50;;;;;;;23.03;44.92;100721.56;4421321;32;20033;-69
2021/08/13 00:04:16;;;;;;;14.60;3.15;;;;;;;23.09;44.79;100720.25;4423552;32;20336;-69
2021/08/13 00:06:42;;;;;;;12.35;3.33;;;;;;;22.90;45.23;100727.09;4419769;32;20140;-69
2021/08/13 00:09:08;;;;;;;10.10;2.40;;;;;;;23.01;45.25;100724.22;4422338;32;20084;-69
2021/08/13 00:11:37;;;;;;;17.20;3.12;;;;;;;23.32;44.60;100724.66;4419133;32;20018;-69
2021/08/13 00:14:03;;;;;;;15.48;3.35;;;;;;;23.48;44.41;100729.53;4421058;32;20030;-69
2021/08/13 00:16:29;;;;;;;13.73;3.22;;;;;;;23.21;45.05;100721.78;4421751;32;20064;-69
2021/08/13 00:18:56;;;;;;;13.77;2.95;;;;;;;23.03;45.27;100722.38;4419670;32;20107;-69
2021/08/13 00:21:22;;;;;;;10.80;2.60;;;;;;;23.19;45.11;100717.88;4420675;32;20065;-69
2021/08/13 00:23:48;;;;;;;14.90;3.33;;;;;;;23.17;45.27;100734.84;4422063;32;20069;-69
2021/08/13 00:26:13;;;;;;;13.82;3.80;;;;;;;23.21;45.20;100733.28;4421918;32;20071;-69
2021/08/13 00:28:39;;;;;;;14.70;3.33;;;;;;;23.56;44.46;100740.50;4417758;32;20122;-69
2021/08/13 00:31:05;;;;;;;12.40;2.83;;;;;;;23.74;44.07;100745.66;4422282;32;20143;-69
2021/08/13 00:33:30;;;;;;;15.20;2.97;;;;;;;23.50;44.62;100737.63;4418203;32;20038;-69
2021/08/13 00:35:56;;;;;;;14.23;3.58;;;;;;;23.43;44.81;100732.44;4423371;32;20498;-69
2021/08/13 00:38:22;;;;;;;9.50;2.58;;;;;;;23.46;44.70;100732.19;4422267;32;20113;-69
2021/08/13 00:40:47;;;;;;;16.17;3.65;;;;;;;23.24;45.34;100737.22;4419611;32;20065;-69
2021/08/13 00:43:13;;;;;;;16.02;3.12;;;;;;;23.52;44.66;100737.91;4420820;32;20127;-69
2021/08/13 00:45:39;;;;;;;17.58;3.17;;;;;;;23.63;44.40;100739.94;4419416;32;20422;-69
2021/08/13 00:48:05;;;;;;;14.95;3.40;;;;;;;23.69;44.29;100741.50;4417945;32;20080;-69
2021/08/13 00:50:32;;;;;;;13.48;2.67;;;;;;;23.69;44.33;100746.44;4419724;32;20188;-69
2021/08/13 00:52:59;;;;;;;15.13;3.50;;;;;;;23.69;44.46;100750.09;4417232;32;20095;-68
2021/08/13 00:55:25;;;;;;;16.85;3.15;;;;;;;23.72;44.28;100743.31;4418434;32;20569;-69
2021/08/13 00:57:51;;;;;;;13.30;3.17;;;;;;;23.78;44.13;100749.03;4416417;32;20052;-68
2021/08/13 01:00:17;;;;;;;19.27;3.37;;;;;;;23.95;43.75;100750.53;4417405;32;20075;-68
2021/08/13 01:02:43;;;;;;;11.98;3.10;;;;;;;23.80;44.15;100761.53;4418905;32;20105;-68
2021/08/13 01:05:09;;;;;;;18.20;3.33;;;;;;;23.98;43.67;100752.31;4418723;32;21050;-68
2021/08/13 01:07:35;;;;;;;15.23;3.00;;;;;;;23.86;44.09;100739.31;4419739;32;20514;-68
2021/08/13 01:10:04;;;;;;;18.65;3.30;;;;;;;23.84;44.03;100741.16;4419156;32;20103;-68
2021/08/13 01:12:41;;;;;;;13.88;3.55;;;;;;;23.73;44.45;100744.06;4420796;32;20103;-69
2021/08/13 01:15:11;;;;;;;11.27;3.47;;;;;;;23.69;44.51;100740.69;4419018;32;20022;-69
2021/08/13 01:23:02;;;;;;;15.25;3.30;;;;;;;24.13;44.08;100729.75;3985453;32;15023590;-68
2021/08/13 01:25:32;;;;;;;16.77;3.45;;;;;;;24.13;44.08;100729.75;4434070;32;20099;-68
2021/08/13 01:28:02;;;;;;;15.18;3.40;;;;;;;23.67;44.70;100723.19;4436120;32;20575;-67
2021/08/13 01:30:29;;;;;;;14.98;3.17;;;;;;;23.66;44.72;100730.25;4434966;32;20096;-67
2021/08/13 01:33:12;;;;;;;13.77;3.58;;;;;;;23.77;44.60;100736.72;4435572;32;20065;-68
2021/08/13 01:35:44;;;;;;;13.23;3.00;;;;;;;23.94;44.17;100740.31;4433565;32;20120;-69
2021/08/13 01:38:15;;;;;;;12.82;3.08;;;;;;;23.68;44.69;100739.91;4434376;32;20109;-69
2021/08/13 01:40:46;;;;;;;16.15;4.00;;;;;;;23.87;44.54;100749.47;4433950;32;20092;-69
2021/08/13 01:43:14;;;;;;;18.98;4.12;;;;;;;23.61;45.17;100745.41;4432304;32;20065;-69
2021/08/13 01:45:40;;;;;;;12.85;3.25;;;;;;;23.75;44.95;100745.13;4429711;32;20143;-68
2021/08/13 01:48:08;;;;;;;17.73;2.92;;;;;;;23.51;45.29;100742.84;4431616;32;20345;-69
2021/08/13 01:50:34;;;;;;;16.23;2.83;;;;;;;23.59;45.35;100745.94;4432681;32;20068;-69
2021/08/13 01:53:02;;;;;;;17.48;2.92;;;;;;;23.53;45.26;100745.19;4435824;32;20437;-69
2021/08/13 01:55:30;;;;;;;12.77;2.78;;;;;;;23.74;45.07;100745.66;4435235;32;20067;-69
2021/08/13 01:57:56;;;;;;;13.55;3.53;;;;;;;23.68;45.28;100739.91;4435577;32;20495;-68
2021/08/13 02:00:25;;;;;;;13.32;2.75;;;;;;;23.50;45.56;100740.50;4431628;32;20471;-68
2021/08/13 02:02:51;;;;;;;14.32;2.50;;;;;;;23.94;44.92;100748.16;4433332;32;20129;-69
2021/08/13 02:05:20;;;;;;;11.20;2.78;;;;;;;23.92;44.88;100742.91;4432996;32;20086;-69
2021/08/13 02:07:47;;;;;;;14.10;2.83;;;;;;;24.12;44.56;100741.78;4431832;32;20026;-69
2021/08/13 02:10:15;;;;;;;12.48;2.90;;;;;;;24.13;44.36;100734.72;4433559;32;20030;-69
2021/08/13 02:12:40;;;;;;;15.65;2.28;;;;;;;24.05;44.53;100739.50;4433037;32;20118;-69
2021/08/13 02:15:09;;;;;;;10.02;2.50;;;;;;;24.02;44.30;100734.81;4430980;32;21525;-69
2021/08/13 02:17:38;;;;;;;10.85;2.45;;;;;;;24.51;43.59;100727.91;4435662;32;20090;-69
2021/08/13 02:20:11;;;;;;;11.48;2.40;;;;;;;24.86;42.68;100725.78;4431475;32;20176;-69
2021/08/13 02:22:37;;;;;;;12.60;2.45;;;;;;;24.76;42.70;100736.06;4432138;32;20045;-68
2021/08/13 02:25:03;;;;;;;13.10;3.03;;;;;;;24.58;43.14;100748.22;4434232;32;21271;-69
2021/08/13 02:27:31;;;;;;;10.10;2.30;;;;;;;24.72;42.75;100740.56;4433531;32;20534;-69
2021/08/13 02:29:57;;;;;;;16.40;3.35;;;;;;;24.67;42.96;100729.91;4431359;32;20077;-69
2021/08/13 02:32:26;;;;;;;24.08;3.35;;;;;;;24.71;42.80;100733.25;4433446;32;20082;-68
2021/08/13 02:34:53;;;;;;;12.40;2.58;;;;;;;24.75;42.71;100722.22;4419839;32;20060;-69
2021/08/13 02:37:25;;;;;;;18.95;3.10;;;;;;;24.61;42.79;100717.63;4424289;32;20090;-68
2021/08/13 02:39:55;;;;;;;14.35;2.12;;;;;;;24.95;42.17;100716.00;4421015;32;20030;-69
2021/08/13 02:42:27;;;;;;;16.50;2.97;;;;;;;24.69;42.72;100709.97;4420908;32;20387;-69
2021/08/13 02:44:58;;;;;;;14.68;2.95;;;;;;;24.76;42.45;100721.69;4421538;32;20069;-69
2021/08/13 02:47:26;;;;;;;11.23;2.75;;;;;;;24.87;42.13;100718.72;4421892;32;20073;-69
2021/08/13 02:49:57;;;;;;;12.60;2.22;;;;;;;24.69;42.21;100725.16;4421170;32;20038;-68
2021/08/13 02:52:29;;;;;;;11.70;2.53;;;;;;;24.71;42.25;100725.41;4420302;32;20118;-69
2021/08/13 02:55:01;;;;;;;18.17;3.35;;;;;;;24.48;42.61;100714.59;4420497;32;20026;-69
2021/08/13 02:57:32;;;;;;;11.52;2.70;;;;;;;24.65;42.21;100721.78;4425739;32;20041;-69
2021/08/13 03:00:02;;;;;;;14.07;2.80;;;;;;;24.53;42.20;100728.16;4424335;32;20075;-68
2021/08/13 03:02:30;;;;;;;7.22;2.83;;;;;;;24.44;42.27;100716.97;4420463;32;20060;-68
2021/08/13 03:04:57;;;;;;;11.15;3.05;;;;;;;24.48;42.25;100714.59;4421460;32;20171;-69
2021/08/13 03:07:25;;;;;;;14.68;2.47;;;;;;;24.39;42.22;100729.31;4422481;32;20517;-69
2021/08/13 03:09:52;;;;;;;11.63;2.42;;;;;;;24.48;41.91;100714.59;4421775;32;20061;-69
2021/08/13 03:12:18;;;;;;;13.52;2.53;;;;;;;24.43;41.93;100710.44;4420153;32;20107;-69
2021/08/13 03:14:45;;;;;;;10.88;2.20;;;;;;;24.06;42.33;100704.47;4419701;32;20403;-69
2021/08/13 03:17:11;;;;;;;12.60;2.47;;;;;;;24.24;42.21;100703.78;4422745;32;20053;-69
2021/08/13 03:19:38;;;;;;;12.52;2.87;;;;;;;23.94;42.74;100694.31;4420421;32;20092;-69
2021/08/13 03:22:04;;;;;;;12.50;2.60;;;;;;;24.04;42.66;100698.44;4417126;32;20038;-68
2021/08/13 03:24:30;;;;;;;14.18;2.50;;;;;;;24.16;42.36;100705.69;4421849;32;20438;-69
2021/08/13 03:26:56;;;;;;;20.27;3.20;;;;;;;24.03;42.69;100705.53;4420746;32;20049;-69
2021/08/13 03:29:23;;;;;;;12.73;2.40;;;;;;;24.09;42.54;100714.09;4419430;32;20075;-69
2021/08/13 03:31:48;;;;;;;16.35;3.05;;;;;;;24.17;42.19;100707.25;4422802;32;20051;-69
2021/08/13 03:34:16;;;;;;;16.80;3.03;;;;;;;24.26;42.06;100717.63;4421825;32;20547;-69
2021/08/13 03:36:43;;;;;;;16.73;2.85;;;;;;;24.53;41.66;100708.78;4424668;32;20046;-68
2021/08/13 03:39:11;;;;;;;16.30;2.50;;;;;;;24.14;42.42;100707.53;4426871;32;20383;-68
2021/08/13 03:41:37;;;;;;;18.67;2.70;;;;;;;24.11;42.50;100708.63;4421893;32;20099;-68
2021/08/13 03:44:04;;;;;;;17.67;3.47;;;;;;;24.13;42.23;100709.62;4419630;32;20073;-67
2021/08/13 03:46:30;;;;;;;17.90;3.30;;;;;;;24.34;41.93;100702.16;4420325;32;20159;-67
2021/08/13 03:48:56;;;;;;;15.45;3.37;;;;;;;24.20;42.02;100703.28;4421841;32;20034;-67
2021/08/13 03:51:21;;;;;;;13.88;3.15;;;;;;;24.32;41.80;100709.75;4423704;32;20090;-67
2021/08/13 03:53:47;;;;;;;17.87;2.78;;;;;;;24.15;41.96;100704.13;4422599;32;20094;-67
2021/08/13 03:56:13;;;;;;;14.93;3.10;;;;;;;24.31;41.82;100717.59;4422663;32;20077;-67
2021/08/13 03:58:39;;;;;;;14.82;2.70;;;;;;;24.22;42.08;100709.31;4417693;32;20030;-67
2021/08/13 04:01:07;;;;;;;17.02;3.42;;;;;;;24.09;42.38;100717.78;4420585;32;20085;-67
2021/08/13 04:03:33;;;;;;;18.52;2.95;;;;;;;23.79;43.17;100714.00;4422320;32;20034;-67
2021/08/13 04:05:59;;;;;;;19.45;3.35;;;;;;;23.52;43.58;100712.03;4423143;32;20122;-67
2021/08/13 04:08:25;;;;;;;15.38;3.30;;;;;;;23.68;43.06;100722.66;4421420;32;20443;-67
2021/08/13 04:10:51;;;;;;;22.70;3.22;;;;;;;23.42;43.64;100717.31;4422006;32;20408;-67
2021/08/13 04:13:17;;;;;;;17.80;3.12;;;;;;;23.42;43.59;100722.28;4421633;32;21239;-67
2021/08/13 04:15:44;;;;;;;13.48;3.55;;;;;;;23.60;43.21;100707.31;4418888;32;20125;-67
2021/08/13 04:18:10;;;;;;;21.15;2.95;;;;;;;23.44;43.46;100711.03;4421435;32;20041;-69
2021/08/13 04:20:35;;;;;;;18.05;3.08;;;;;;;23.18;44.06;100710.56;4420287;32;20063;-69
2021/08/13 04:23:02;;;;;;;13.10;3.70;;;;;;;23.15;44.36;100708.75;4423264;32;20461;-68
2021/08/13 04:25:28;;;;;;;20.90;3.80;;;;;;;23.23;44.04;100712.66;4422593;32;20062;-68
2021/08/13 04:27:54;;;;;;;18.00;2.55;;;;;;;23.06;43.97;100715.56;4422270;32;20434;-67
2021/08/13 04:30:20;;;;;;;19.02;2.90;;;;;;;23.34;43.48;100704.81;4423214;32;20037;-69
2021/08/13 04:32:45;;;;;;;18.02;3.30;;;;;;;23.27;43.55;100716.84;4424973;32;20034;-67
2021/08/13 04:35:11;;;;;;;16.60;2.70;;;;;;;23.17;43.90;100721.25;4421509;32;20066;-69
2021/08/13 04:37:37;;;;;;;17.70;3.15;;;;;;;23.38;43.52;100713.91;4421924;32;20058;-67
2021/08/13 04:40:05;;;;;;;18.58;3.67;;;;;;;23.31;43.52;100717.34;4421096;32;20037;-67
2021/08/13 04:42:30;;;;;;;21.70;3.90;;;;;;;23.29;43.54;100719.19;4420464;32;20120;-67
2021/08/13 04:44:57;;;;;;;16.08;2.70;;;;;;;22.97;44.09;100727.34;4423903;32;20421;-67
2021/08/13 04:47:22;;;;;;;17.50;3.50;;;;;;;23.34;43.35;100735.59;4417683;32;20038;-68
2021/08/13 04:49:48;;;;;;;17.33;3.80;;;;;;;23.51;42.88;100742.09;4418921;32;20034;-67
2021/08/13 04:52:14;;;;;;;14.13;2.67;;;;;;;23.43;43.14;100746.81;4420232;32;20138;-67
2021/08/13 04:54:40;;;;;;;10.93;2.80;;;;;;;23.39;43.28;100738.47;4419718;32;20058;-67
2021/08/13 04:57:06;;;;;;;15.38;3.00;;;;;;;23.39;43.27;100735.59;4421047;32;20038;-68
2021/08/13 04:59:31;;;;;;;17.45;3.55;;;;;;;22.93;44.32;100735.44;4417320;32;20026;-67
2021/08/13 05:01:58;;;;;;;14.90;3.40;;;;;;;22.85;44.64;100734.41;4420795;32;20095;-69
2021/08/13 05:04:23;;;;;;;14.18;2.83;;;;;;;22.78;44.87;100719.78;4421023;32;20064;-69
2021/08/13 05:06:49;;;;;;;16.48;3.40;;;;;;;22.76;44.87;100722.38;4418805;32;20396;-68
2021/08/13 05:09:15;;;;;;;19.30;2.80;;;;;;;22.85;44.56;100719.25;4418843;32;20102;-69
2021/08/13 05:11:45;;;;;;;15.15;3.22;;;;;;;22.77;44.64;100721.87;4419340;32;20018;-69
2021/08/13 05:14:12;;;;;;;9.50;2.70;;;;;;;23.08;44.29;100717.91;4420911;32;20074;-69
2021/08/13 05:16:38;;;;;;;21.52;3.72;;;;;;;22.99;44.39;100715.31;4420532;32;20162;-69
2021/08/13 05:19:04;;;;;;;14.43;3.03;;;;;;;23.04;44.35;100714.53;4417303;32;20030;-69
2021/08/13 05:21:37;;;;;;;12.85;3.17;;;;;;;23.06;44.30;100717.66;4422031;32;20099;-69
2021/08/13 05:24:04;;;;;;;18.45;3.40;;;;;;;23.28;44.04;100714.75;4419521;32;20419;-69
2021/08/13 05:26:29;;;;;;;15.70;3.05;;;;;;;23.05;44.49;100702.53;4421830;32;20358;-69
2021/08/13 05:28:55;;;;;;;12.05;3.03;;;;;;;23.13;44.00;100723.62;4417086;32;20073;-67
2021/08/13 05:31:21;;;;;;;14.48;2.80;;;;;;;23.23;44.09;100716.31;4423509;32;20029;-67
2021/08/13 05:33:47;;;;;;;18.55;3.03;;;;;;;23.10;44.40;100721.06;4421186;32;20115;-67
2021/08/13 05:36:16;;;;;;;19.52;3.53;;;;;;;23.59;43.43;100728.72;4422227;32;20049;-68
2021/08/13 05:38:43;;;;;;;16.60;3.80;;;;;;;23.68;43.24;100721.91;4420654;32;20500;-68
2021/08/13 05:41:09;;;;;;;17.17;4.00;;;;;;;23.70;43.12;100722.13;4425373;32;20515;-68
2021/08/13 05:43:35;;;;;;;18.02;3.55;;;;;;;23.76;42.91;100732.31;4423886;32;20626;-68
2021/08/13 05:46:01;;;;;;;17.73;3.08;;;;;;;23.70;43.05;100734.41;4418826;32;20204;-68
2021/08/13 05:48:26;;;;;;;12.23;3.25;;;;;;;23.82;42.67;100735.94;4420861;32;20202;-68
2021/08/13 05:50:52;;;;;;;19.65;3.37;;;;;;;23.96;42.50;100734.81;4418751;32;20913;-68
2021/08/13 05:53:18;;;;;;;19.67;3.08;;;;;;;23.86;42.81;100730.69;4421483;32;20038;-68
2021/08/13 05:55:43;;;;;;;18.92;3.58;;;;;;;23.91;42.62;100732.75;4420916;32;20500;-68
2021/08/13 05:58:09;;;;;;;13.65;3.28;;;;;;;24.07;42.23;100736.84;4418202;32;20038;-68
2021/08/13 06:00:35;;;;;;;17.08;3.67;;;;;;;24.05;42.24;100751.00;4419404;32;20037;-68
2021/08/13 06:03:03;;;;;;;19.73;3.50;;;;;;;24.29;41.84;100749.00;4417692;32;20048;-68
2021/08/13 06:05:29;;;;;;;16.12;3.35;;;;;;;24.36;41.63;100745.53;4422744;32;20140;-68
2021/08/13 06:07:55;;;;;;;23.25;3.72;;;;;;;24.35;41.67;100746.06;4418206;32;20022;-68
2021/08/13 06:10:21;;;;;;;18.83;3.62;;;;;;;24.63;41.17;100752.37;4422035;32;20026;-68
2021/08/13 06:12:48;;;;;;;36.08;7.47;;;;;;;24.70;41.00;100760.47;4421970;32;20415;-68
2021/08/13 06:15:15;;;;;;;29.58;6.60;;;;;;;24.80;40.74;100767.44;4418903;32;20475;-68
2021/08/13 06:17:42;;;;;;;44.53;10.60;;;;;;;25.06;40.21;100776.34;4421524;32;20081;-68
2021/08/13 06:20:10;;;;;;;28.35;6.07;;;;;;;25.18;40.07;100775.72;4421814;32;20114;-68
2021/08/13 06:22:36;;;;;;;24.95;5.50;;;;;;;24.96;40.20;100767.31;4418825;32;20235;-68
2021/08/13 06:25:01;;;;;;;17.17;3.42;;;;;;;24.65;40.70;100776.47;4420794;32;20063;-68
2021/08/13 06:27:27;;;;;;;25.45;5.97;;;;;;;24.82;40.61;100787.84;4421330;32;20068;-68
2021/08/13 06:29:53;;;;;;;24.05;4.60;;;;;;;24.79;40.44;100772.41;4418950;32;20092;-68
2021/08/13 06:32:19;;;;;;;25.23;4.82;;;;;;;24.79;40.45;100777.41;4419003;32;20073;-68
2021/08/13 06:34:46;;;;;;;25.42;7.10;;;;;;;24.40;41.14;100776.91;4422090;32;20076;-68
2021/08/13 06:37:11;;;;;;;17.15;3.97;;;;;;;24.68;40.92;100786.91;4420881;32;20030;-68
2021/08/13 06:39:37;;;;;;;19.00;3.40;;;;;;;24.57;40.97;100789.06;4420736;32;20093;-68
2021/08/13 06:42:04;;;;;;;20.40;3.65;;;;;;;24.21;41.64;100788.25;4422082;32;20025;-68
2021/08/13 06:44:30;;;;;;;19.15;3.05;;;;;;;24.55;41.11;100795.38;4421360;32;20060;-68
2021/08/13 06:46:56;;;;;;;22.87;2.92;;;;;;;24.57;40.93;100786.16;4421005;32;20052;-68
2021/08/13 06:49:22;;;;;;;25.90;4.37;;;;;;;24.31;41.39;100791.59;4423318;32;20111;-68
2021/08/13 06:51:48;;;;;;;13.50;3.03;;;;;;;24.23;41.46;100787.72;4422817;32;20046;-68
2021/08/13 06:54:13;;;;;;;18.80;3.35;;;;;;;24.23;41.44;100777.00;4422812;32;20065;-68
2021/08/13 06:56:40;;;;;;;22.10;3.22;;;;;;;24.34;41.38;100782.69;4417562;32;20055;-68
2021/08/13 06:59:06;;;;;;;20.45;3.45;;;;;;;24.18;41.67;100791.44;4419763;32;20034;-68
2021/08/13 07:01:32;;;;;;;15.63;3.20;;;;;;;24.40;41.33;100782.66;4417924;32;20426;-68
2021/08/13 07:03:58;;;;;;;18.83;3.50;;;;;;;24.30;41.51;100775.66;4422333;32;20062;-68
2021/08/13 07:06:24;;;;;;;16.98;3.30;;;;;;;24.18;41.69;100774.97;4423710;32;20041;-68
2021/08/13 07:08:49;;;;;;;16.30;2.75;;;;;;;24.20;41.54;100778.06;4421899;32;20223;-68
2021/08/13 07:11:15;;;;;;;17.45;3.70;;;;;;;24.38;41.31;100774.56;4422514;32;20030;-68
2021/08/13 07:13:41;;;;;;;20.58;3.53;;;;;;;24.21;41.58;100775.97;4419430;32;20374;-68
2021/08/13 07:16:06;;;;;;;22.60;3.92;;;;;;;23.95;41.79;100767.75;4420032;32;20363;-68
2021/08/13 07:18:34;;;;;;;23.83;4.10;;;;;;;24.21;41.52;100779.63;4417149;32;20065;-68
2021/08/13 07:20:59;;;;;;;20.85;3.78;;;;;;;24.39;41.27;100773.22;4421227;32;20076;-68
2021/08/13 07:23:25;;;;;;;18.98;3.12;;;;;;;24.92;40.33;100783.31;4423404;32;20101;-69
2021/08/13 07:25:51;;;;;;;16.58;4.28;;;;;;;24.67;40.64;100788.22;4424169;32;20065;-68
2021/08/13 07:28:16;;;;;;;16.27;3.45;;;;;;;25.08;39.98;100780.28;4424074;32;20475;-68
2021/08/13 07:30:42;;;;;;;15.15;3.12;;;;;;;25.18;39.72;100786.44;4421287;32;20230;-68
2021/08/13 07:33:08;;;;;;;13.77;2.90;;;;;;;25.51;38.99;100788.22;4421309;32;20073;-68
2021/08/13 07:35:33;;;;;;;17.52;3.30;;;;;;;25.60;38.78;100800.16;4419933;32;20160;-68
2021/08/13 07:37:59;;;;;;;16.77;3.55;;;;;;;26.05;37.95;100794.66;4423895;32;20171;-68
2021/08/13 07:40:25;;;;;;;18.60;3.12;;;;;;;26.00;37.94;100801.25;4423533;32;20408;-68
2021/08/13 07:42:54;;;;;;;15.68;3.35;;;;;;;26.21;37.57;100802.28;4420351;32;20095;-68
2021/08/13 07:45:20;;;;;;;14.27;4.00;;;;;;;26.47;37.30;100788.78;4419244;32;20093;-68
2021/08/13 07:47:46;;;;;;;19.80;3.40;;;;;;;26.08;37.80;100797.22;4420754;32;20200;-68
2021/08/13 07:50:12;;;;;;;14.32;3.08;;;;;;;26.11;37.48;100787.47;4417214;32;20084;-68
2021/08/13 07:52:38;;;;;;;20.35;3.55;;;;;;;26.23;37.36;100797.53;4421029;32;20622;-68
2021/08/13 07:55:04;;;;;;;13.10;2.50;;;;;;;26.13;37.33;100812.87;4421110;32;20079;-68
2021/08/13 07:57:30;;;;;;;12.80;2.55;;;;;;;26.17;37.07;100808.38;4419192;32;20072;-68
2021/08/13 07:59:59;;;;;;;15.85;2.65;;;;;;;25.65;37.50;100801.44;4422062;32;20084;-68
2021/08/13 08:02:25;;;;;;;15.35;3.25;;;;;;;26.16;36.77;100803.13;4422385;32;20049;-68
2021/08/13 08:04:52;;;;;;;17.77;2.85;;;;;;;26.12;36.73;100814.22;4421740;32;20026;-68
2021/08/13 08:07:18;;;;;;;12.43;2.40;;;;;;;25.63;37.13;100809.81;4422943;32;20099;-68
2021/08/13 08:09:44;;;;;;;20.23;2.75;;;;;;;26.03;36.65;100809.63;4419350;32;20087;-69
2021/08/13 08:12:10;;;;;;;19.20;2.62;;;;;;;25.77;36.49;100806.50;4418301;32;20034;-68
2021/08/13 08:14:36;;;;;;;16.67;2.80;;;;;;;25.73;36.42;100817.56;4418018;32;20106;-68
2021/08/13 08:17:03;;;;;;;10.18;2.00;;;;;;;26.09;35.99;100816.09;4419188;32;20100;-68
2021/08/13 08:19:29;;;;;;;17.40;2.58;;;;;;;26.48;35.44;100818.44;4416594;32;20519;-68
2021/08/13 08:21:55;;;;;;;15.43;2.62;;;;;;;26.19;35.42;100808.59;4418104;32;20085;-68
2021/08/13 08:24:20;;;;;;;25.73;2.80;;;;;;;26.51;34.92;100820.22;4423866;32;20018;-68
2021/08/13 08:26:46;;;;;;;19.92;3.05;;;;;;;26.47;34.81;100829.19;4420748;32;20159;-68
2021/08/13 08:29:11;;;;;;;14.57;2.50;;;;;;;26.61;34.71;100818.47;4417966;32;20068;-68
2021/08/13 08:31:37;;;;;;;13.25;2.60;;;;;;;26.27;34.91;100823.19;4420100;32;20118;-68
2021/08/13 08:34:03;;;;;;;8.70;2.25;;;;;;;26.18;35.40;100835.91;4422171;32;20066;-68
2021/08/13 08:36:29;;;;;;;15.02;2.72;;;;;;;26.30;35.17;100825.00;4421402;32;20168;-68
2021/08/13 08:38:54;;;;;;;16.95;2.17;;;;;;;25.99;35.21;100832.22;4415237;32;20033;-68
2021/08/13 08:41:20;;;;;;;11.57;2.30;;;;;;;25.38;35.83;100824.25;4418737;32;20048;-68
2021/08/13 08:43:49;;;;;;;18.48;3.47;;;;;;;25.40;36.04;100829.47;4418551;32;20064;-68
2021/08/13 08:46:19;;;;;;;21.08;2.80;;;;;;;25.84;35.30;100831.84;4421342;32;20090;-69
2021/08/13 08:48:49;;;;;;;22.02;2.83;;;;;;;26.31;34.95;100833.09;4416387;32;20140;-67
2021/08/13 08:51:16;;;;;;;14.18;2.65;;;;;;;26.15;34.60;100824.66;4420322;32;20030;-68
2021/08/13 08:53:45;;;;;;;16.23;2.58;;;;;;;25.93;35.13;100851.69;4416672;32;20037;-68
2021/08/13 08:56:14;;;;;;;12.13;2.10;;;;;;;26.25;34.52;100835.28;4419820;32;20127;-68
2021/08/13 08:58:40;;;;;;;12.35;2.10;;;;;;;26.74;34.00;100845.34;4417087;32;20041;-69
2021/08/13 09:01:06;;;;;;;15.40;2.40;;;;;;;26.78;33.71;100845.78;4417585;32;20095;-70
2021/08/13 09:03:31;;;;;;;13.48;2.35;;;;;;;26.50;33.41;100838.84;4418777;32;20231;-68
2021/08/13 09:05:57;;;;;;;12.40;2.05;;;;;;;26.80;33.14;100840.25;4418042;32;20069;-68
2021/08/13 09:08:23;;;;;;;14.45;2.37;;;;;;;26.78;33.14;100831.34;4419474;32;20379;-68
2021/08/13 09:10:49;;;;;;;14.18;2.45;;;;;;;26.96;33.21;100847.06;4424277;32;20034;-67
2021/08/13 09:13:22;;;;;;;12.57;2.53;;;;;;;27.00;33.22;100850.44;4419605;32;20037;-67
2021/08/13 09:15:48;;;;;;;15.73;2.70;;;;;;;26.92;33.29;100856.06;4419315;32;20077;-67
2021/08/13 09:18:21;;;;;;;13.48;3.22;;;;;;;27.04;33.04;100845.12;4423209;32;20049;-67
2021/08/13 09:23:44;;;;;;;15.88;2.62;;;;;;;27.28;31.90;100847.09;3998454;32;15017769;-68
2021/08/13 09:26:21;;;;;;;13.20;2.22;;;;;;;27.28;31.90;100847.09;4458522;32;20196;-68
2021/08/13 09:36:56;;;;;;;11.52;2.25;;;;;;;28.06;30.61;100847.94;3983427;32;15023129;-69
2021/08/13 09:42:07;;;;;;;18.05;2.10;;;;;;;27.79;30.42;100869.50;3999648;31;15016532;-68
2021/08/13 09:44:35;;;;;;;16.77;2.00;;;;;;;27.79;30.42;100869.50;4455436;32;20053;-68
2021/08/13 09:49:41;;;;;;;17.52;4.50;;;;;;;28.10;30.22;100859.19;3982785;32;15022407;-69
2021/08/13 09:52:13;;;;;;;8.90;2.00;;;;;;;28.10;30.22;100859.19;4433573;32;20092;-69
2021/08/13 09:54:41;;;;;;;11.45;2.00;;;;;;;27.44;30.75;100867.03;4431845;32;20093;-69
2021/08/13 10:00:00;;;;;;;17.70;2.00;;;;;;;27.80;30.29;100865.28;3983401;32;15024858;-68
2021/08/13 10:02:26;;;;;;;15.90;2.37;;;;;;;27.80;30.29;100865.28;4433512;32;20101;-68
2021/08/13 10:04:52;;;;;;;9.98;2.05;;;;;;;27.31;30.96;100877.78;4432993;32;20073;-68
2021/08/13 10:07:20;;;;;;;11.02;2.28;;;;;;;27.99;29.77;100876.75;4433188;32;20075;-68
2021/08/13 10:09:48;;;;;;;12.70;2.47;;;;;;;28.49;28.77;100877.28;4432383;32;20095;-67
2021/08/13 10:12:14;;;;;;;14.40;3.22;;;;;;;28.31;28.94;100872.38;4434465;32;20052;-68
2021/08/13 10:14:41;;;;;;;10.82;3.00;;;;;;;28.28;28.19;100875.59;4433324;32;20455;-68
2021/08/13 10:19:48;;;;;;;8.50;1.85;;;;;;;29.74;27.25;100870.22;3989215;31;15015272;-69
2021/08/13 10:22:16;;;;;;;14.68;2.80;;;;;;;29.74;27.25;100870.22;4449860;32;20136;-69
2021/08/13 10:24:44;;;;;;;9.00;2.22;;;;;;;29.44;27.23;100861.25;4449667;32;20033;-69
2021/08/13 10:27:11;;;;;;;7.70;2.00;;;;;;;28.54;28.37;100882.19;4443064;32;20052;-67
2021/08/13 10:29:37;;;;;;;12.85;1.90;;;;;;;28.99;28.11;100876.09;4448540;32;20442;-69
2021/08/13 10:32:03;;;;;;;14.65;2.37;;;;;;;29.11;27.99;100865.81;4449444;32;20061;-70
2021/08/13 10:34:30;;;;;;;30.65;11.07;;;;;;;29.39;27.90;100868.75;4450384;32;20068;-69
2021/08/13 10:36:56;;;;;;;12.93;2.37;;;;;;;29.37;28.16;100870.69;4433463;32;20469;-69
2021/08/13 10:39:25;;;;;;;7.35;2.03;;;;;;;28.91;28.44;100876.03;4450781;32;20072;-69
2021/08/13 10:41:55;;;;;;;9.55;2.00;;;;;;;28.87;28.83;100871.94;4450297;32;20103;-69
2021/08/13 10:44:28;;;;;;;9.70;2.30;;;;;;;29.19;28.40;100878.25;4446204;32;20038;-70
2021/08/13 10:46:55;;;;;;;11.73;2.65;;;;;;;29.41;28.29;100886.38;4448189;32;20037;-70
2021/08/13 10:49:22;;;;;;;12.05;2.70;;;;;;;29.88;27.55;100868.78;4449487;32;20080;-70
2021/08/13 10:52:06;;;;;;;15.40;2.58;;;;;;;29.75;27.68;100863.06;4447360;32;20029;-69
2021/08/13 10:54:41;;;;;;;16.35;2.65;;;;;;;29.82;27.59;100854.41;4452457;32;20136;-69
2021/08/13 10:57:09;;;;;;;13.18;2.17;;;;;;;29.83;27.75;100861.78;4436570;32;20147;-69
2021/08/13 11:02:18;;;;;;;11.12;2.35;;;;;;;31.29;25.53;100866.25;3949158;32;15023025;-70
2021/08/13 11:04:49;;;;;;;8.82;1.98;;;;;;;31.29;25.53;100866.25;4400224;32;20042;-69
2021/08/13 11:07:34;;;;;;;13.40;2.65;;;;;;;30.98;25.88;100882.84;4400405;32;20066;-71
2021/08/13 11:10:00;;;;;;;10.70;1.92;;;;;;;30.98;25.30;100894.47;4401974;32;20661;-70
2021/08/13 11:12:26;;;;;;;9.02;2.30;;;;;;;31.48;24.98;100895.72;4401039;32;20403;-70
2021/08/13 11:14:55;;;;;;;10.15;2.40;;;;;;;31.00;25.23;100880.13;4398077;32;20053;-70
2021/08/13 11:17:42;;;;;;;13.13;2.60;;;;;;;31.42;24.68;100878.47;4400510;32;21992;-70
2021/08/13 11:20:10;;;;;;;16.50;2.55;;;;;;;32.23;23.16;100893.50;4401424;32;20207;-70
2021/08/13 11:22:37;;;;;;;14.55;2.83;;;;;;;31.99;23.78;100873.78;4400498;32;20082;-70
2021/08/13 11:28:14;;;;;;;12.20;2.03;;;;;;;31.05;24.47;100873.38;3984961;32;15030061;-70
2021/08/13 11:30:42;;;;;;;9.77;2.10;;;;;;;31.05;24.47;100873.38;4440195;32;20041;-70
2021/08/13 11:36:08;;;;;;;10.93;2.35;;;;;;;30.09;25.68;100863.66;3988489;32;15025603;-70
2021/08/13 11:41:28;;;;;;;9.98;2.80;;;;;;;29.95;25.58;100874.63;3985746;32;15022985;-70
2021/08/13 11:43:58;;;;;;;9.38;2.08;;;;;;;29.95;25.58;100874.63;4436943;32;20058;-70
2021/08/13 11:49:03;;;;;;;8.38;1.95;;;;;;;30.65;24.57;100869.38;3985260;32;15023827;-70
2021/08/13 11:51:31;;;;;;;12.63;2.37;;;;;;;30.61;24.50;100857.34;4437620;32;20064;-70
2021/08/13 11:53:57;;;;;;;8.75;1.80;;;;;;;31.00;24.29;100882.25;4436034;32;20468;-70
2021/08/13 11:56:29;;;;;;;9.48;2.00;;;;;;;30.57;23.84;100860.63;4434333;32;20170;-70
2021/08/13 11:58:57;;;;;;;9.93;2.20;;;;;;;31.42;22.86;100863.16;4433660;32;20134;-70